Latest Weather Observations for Yulara

IDD60801

Issued at 6:33 pm CST Monday 30 March 2015 (issued every 30 minutes, with the page automatically refreshed every 10 minutes)

About weather observations | Map of weather stations | Latest weather observations for NT | Other Formats
Station Details ID: 015635 Name: YULARA AIRPORT Lat: -25.19 Lon: 130.97 Height: 492.0 m
Data from the previous 72 hours. | See also: Recent months at Yulara
Date/Time
CST
Temp
°C
App
Temp
°C
Dew
Point
Rel
Hum
%
Delta-T
°C
Wind Press
QNH
hPa
Press
MSL
hPa
Rain
since 9 am
mm
Dir
 
Spd
km/h
Gust
km/h
Spd
kts
Gust
kts
30/06:30pm 31.4 26.7 3.4 17 14.6 E 17 22 9 12 1020.0 1016.8 0.0
30/06:00pm 32.1 26.8 3.1 16 15.1 ESE 20 30 11 16 1019.8 1016.6 0.0
30/05:30pm 32.6 27.6 4.4 17 15.0 E 20 33 11 18 1019.4 1016.2 0.0
30/05:00pm 32.4 27.7 3.4 16 15.2 E 17 30 9 16 1019.3 1016.1 0.0
30/04:30pm 33.6 28.7 5.2 17 15.4 E 20 30 11 16 1019.3 1016.1 0.0
30/04:00pm 32.3 26.1 4.2 17 14.9 E 26 41 14 22 1019.3 1016.1 0.0
30/03:30pm 33.6 27.0 4.3 16 15.7 E 28 39 15 21 1019.6 1016.4 0.0
30/03:00pm 32.2 26.7 4.1 17 14.9 E 22 33 12 18 1019.8 1016.6 0.0
30/02:30pm 32.9 28.3 5.5 18 14.9 ENE 19 28 10 15 1020.1 1017.0 0.0
30/02:00pm 32.6 27.7 6.7 20 14.3 E 22 33 12 18 1020.3 1017.2 0.0
30/01:30pm 30.6 25.6 6.5 22 13.2 E 22 32 12 17 1021.1 1017.9 0.0
30/01:00pm 29.8 24.8 6.5 23 12.7 ENE 22 30 12 16 1021.7 1018.5 0.0
30/12:30pm 28.6 23.9 6.1 24 12.1 E 20 30 11 16 1022.2 1019.1 0.0
30/12:00pm 27.8 23.2 6.6 26 11.4 E 20 30 11 16 1022.8 1019.7 0.0
30/11:30am 26.4 21.8 5.4 26 11.0 E 19 26 10 14 1023.4 1020.2 0.0
30/11:00am 26.2 20.6 5.2 26 10.9 E 24 33 13 18 1023.7 1020.5 0.0
30/10:30am 24.3 19.1 5.6 30 9.7 E 22 30 12 16 1024.1 1021.0 0.0
30/10:00am 23.8 19.3 7.0 34 8.9 E 20 28 11 15 1024.3 1021.2 0.0
30/09:30am 22.0 18.1 7.0 38 7.9 E 17 26 9 14 1024.4 1021.3 0.0
30/09:00am 20.4 17.0 7.7 44 6.7 ESE 15 20 8 11 1024.1 1021.0 0.0
30/08:30am 18.8 15.5 7.9 49 5.7 ESE 15 20 8 11 1023.8 1020.7 0.0
30/08:00am 17.6 13.8 7.6 52 5.2 SE 17 20 9 11 1023.4 1020.2 0.0
30/07:30am 16.5 13.5 7.7 56 4.5 SE 13 17 7 9 1022.9 1019.8 0.0
30/07:00am 16.2 13.1 7.4 56 4.5 SE 13 17 7 9 1022.5 1019.4 0.0
30/06:30am 16.1 13.5 7.6 57 4.3 SSE 11 15 6 8 1022.2 1019.1 0.0
30/06:00am 16.1 13.5 7.6 57 4.3 SSE 11 13 6 7 1021.6 1018.4 0.0
30/05:30am 15.6 13.4 7.9 60 3.9 SSE 9 9 5 5 1021.5 1018.3 0.0
30/05:00am 16.1 14.0 8.3 60 4.1 SSE 9 11 5 6 1021.4 1018.2 0.0
30/04:30am 16.3 14.3 8.8 61 3.9 SSE 9 9 5 5 1021.3 1018.1 0.0
30/04:00am 16.4 14.5 9.1 62 3.9 SSE 9 13 5 7 1021.1 1017.9 0.0
30/03:30am 17.0 15.3 9.7 62 3.9 ESE 9 11 5 6 1020.8 1017.7 0.0
30/03:00am 17.1 15.8 10.0 63 3.8 SE 7 11 4 6 1020.8 1017.7 0.0
30/02:30am 17.5 16.3 10.4 63 3.9 ESE 7 11 4 6 1021.2 1018.0 0.0
30/02:00am 17.2 15.6 10.1 63 3.9 SSE 9 11 5 6 1021.3 1018.1 0.0
30/01:30am 17.3 15.6 10.0 62 3.9 S 9 13 5 7 1021.5 1018.3 0.0
30/01:00am 18.8 17.6 10.4 58 4.6 SE 7 11 4 6 1021.6 1018.4 0.0
30/12:30am 19.4 17.9 10.7 57 4.8 ENE 9 15 5 8 1021.8 1018.6 0.0
30/12:00am 19.2 16.9 10.5 57 4.8 E 13 15 7 8 1021.9 1018.8 0.0
 
Date/Time
CST
Temp
°C
App
Temp
°C
Dew
Point
Rel
Hum
%
Delta-T
°C
Wind Press
QNH
hPa
Press
MSL
hPa
Rain
since 9 am
mm
Dir
 
Spd
km/h
Gust
km/h
Spd
kts
Gust
kts
29/11:30pm 20.0 18.0 11.5 58 4.8 E 13 15 7 8 1022.2 1019.1 0.0
29/11:00pm 19.7 19.0 11.5 59 4.6 ESE 6 7 3 4 1022.6 1019.5 0.0
29/10:30pm 19.4 18.6 10.9 58 4.7 ESE 6 7 3 4 1022.8 1019.7 0.0
29/10:00pm 21.0 19.9 11.9 56 5.2 ENE 9 11 5 6 1022.8 1019.7 0.0
29/09:30pm 21.4 20.7 11.4 53 5.7 E 6 7 3 4 1022.9 1019.8 0.0
29/09:00pm 21.9 22.7 12.5 55 5.4 CALM 0 6 0 3 1022.8 1019.7 0.0
29/08:30pm 22.1 21.9 11.8 52 5.9 NNE 4 7 2 4 1022.8 1019.7 0.0
29/08:00pm 22.6 21.4 11.7 50 6.3 NNE 9 11 5 6 1022.5 1019.4 0.0
29/07:30pm 23.3 21.7 11.7 48 6.7 NNE 11 15 6 8 1022.3 1019.2 0.0
29/07:00pm 24.0 21.6 11.3 45 7.3 NNE 15 19 8 10 1021.9 1018.8 0.0
29/06:30pm 25.1 22.2 10.9 41 8.1 NNE 17 22 9 12 1021.4 1018.2 0.0
29/06:00pm 26.0 23.0 10.6 38 8.8 NNE 17 22 9 12 1020.9 1017.8 0.0
29/05:30pm 26.5 23.2 11.0 38 8.9 NE 19 24 10 13 1020.9 1017.8 0.0
29/05:00pm 26.1 22.9 11.1 39 8.7 NNE 19 22 10 12 1020.7 1017.6 0.0
29/04:30pm 26.4 23.1 11.7 40 8.6 NE 20 30 11 16 1020.6 1017.5 0.0
29/04:00pm 26.7 23.5 12.0 40 8.6 NNE 20 28 11 15 1020.6 1017.5 0.0
29/03:30pm 26.5 23.3 11.4 39 8.8 NE 19 26 10 14 1020.6 1017.5 0.0
29/03:00pm 26.7 23.3 10.4 36 9.3 NE 19 26 10 14 1020.8 1017.7 0.0
29/02:30pm 26.6 22.8 9.9 35 9.5 NE 20 28 11 15 1021.1 1017.9 0.0
29/02:00pm 26.7 22.7 9.1 33 9.9 NE 20 30 11 16 1021.2 1018.0 0.0
29/01:30pm 25.4 21.0 7.5 32 9.7 NE 20 28 11 15 1021.6 1018.4 0.0
29/01:00pm 24.8 20.4 7.4 33 9.4 NE 20 28 11 15 1022.0 1018.9 0.0
29/12:30pm 25.2 19.8 7.8 33 9.4 ENE 26 33 14 18 1022.0 1018.9 0.0
29/12:00pm 24.7 18.5 6.0 30 9.8 ENE 28 35 15 19 1022.3 1019.2 0.0
29/11:30am 24.8 19.7 4.0 26 10.5 ENE 20 28 11 15 1023.1 1020.0 0.0
29/11:00am 24.1 18.3 2.3 24 10.7 ENE 22 30 12 16 1023.4 1020.2 0.0
29/10:30am 23.9 18.0 1.5 23 10.7 ENE 22 26 12 14 1023.6 1020.4 0.0
29/10:00am 24.1 17.4 1.7 23 10.8 E 26 33 14 18 1023.4 1020.2 0.0
29/09:30am 23.9 17.8 0.3 21 11.1 ENE 22 35 12 19 1023.3 1020.1 0.0
29/09:00am 23.9 17.4 0.3 21 11.1 NE 24 33 13 18 1022.9 1019.8 0.0
29/08:30am 22.9 17.5 1.3 24 10.2 ENE 19 24 10 13 1022.7 1019.6 0.0
29/08:00am 22.6 18.4 -0.8 21 10.7 SE 11 17 6 9 1022.3 1019.2 0.0
29/07:30am 22.2 17.6 -1.1 21 10.5 ESE 13 17 7 9 1021.5 1018.3 0.0
29/07:00am 21.6 17.8 -0.4 23 10.0 ESE 9 13 5 7 1020.8 1017.7 0.0
29/06:30am 21.2 17.4 2.0 28 9.1 SE 11 13 6 7 1020.4 1017.3 0.0
29/06:00am 21.3 18.1 3.0 30 8.9 SE 9 15 5 8 1020.1 1017.0 0.0
29/05:30am 21.5 18.8 3.7 31 8.8 SE 7 11 4 6 1019.8 1016.6 0.0
29/05:00am 21.8 18.5 2.5 28 9.3 SSE 9 11 5 6 1019.6 1016.4 0.0
29/04:30am 21.8 18.7 3.5 30 9.0 SE 9 11 5 6 1019.2 1016.0 0.0
29/04:00am 22.0 19.4 4.1 31 8.9 SE 7 9 4 5 1018.8 1015.7 0.0
29/03:30am 22.4 19.7 5.4 33 8.7 ESE 9 13 5 7 1018.8 1015.7 0.0
29/03:00am 22.9 20.3 6.2 34 8.7 E 9 11 5 6 1019.3 1016.1 0.0
29/02:30am 23.0 19.3 6.3 34 8.7 E 15 22 8 12 1018.8 1015.7 0.0
29/02:00am 23.0 20.1 8.3 39 8.0 ESE 13 19 7 10 1019.1 1015.9 0.0
29/01:30am 23.0 20.2 8.7 40 7.8 ESE 13 19 7 10 1019.5 1016.3 0.0
29/01:00am 21.8 20.0 10.9 50 6.1 SE 11 13 6 7 1019.5 1016.3 0.0
29/12:30am 21.7 22.0 10.8 50 6.1 CALM 0 0 0 0 1020.1 1017.0 0.0
29/12:00am 22.3 21.2 10.8 48 6.5 SE 7 9 4 5 1020.5 1017.4 0.0
 
Date/Time
CST
Temp
°C
App
Temp
°C
Dew
Point
Rel
Hum
%
Delta-T
°C
Wind Press
QNH
hPa
Press
MSL
hPa
Rain
since 9 am
mm
Dir
 
Spd
km/h
Gust
km/h
Spd
kts
Gust
kts
28/11:30pm 22.6 21.2 11.0 48 6.6 SE 9 13 5 7 1020.5 1017.4 0.0
28/11:00pm 22.8 21.1 11.2 48 6.6 ESE 11 15 6 8 1020.5 1017.4 0.0
28/10:30pm 22.8 20.7 11.2 48 6.6 ESE 13 17 7 9 1020.4 1017.3 0.0
28/10:00pm 23.0 21.3 11.1 47 6.8 SE 11 19 6 10 1020.7 1017.6 0.0
28/09:30pm 22.8 20.0 11.2 48 6.6 SSE 17 22 9 12 1020.4 1017.3 0.0
28/09:00pm 24.4 21.7 7.5 34 9.1 SSE 11 15 6 8 1021.2 1018.0 0.0
28/08:30pm 24.9 20.5 6.6 31 9.7 SSW 19 26 10 14 1020.7 1017.6 0.0
28/08:00pm 25.5 21.3 5.7 28 10.4 SSW 17 22 9 12 1020.3 1017.2 0.0
28/07:30pm 25.7 22.7 4.2 25 11.0 SSW 9 13 5 7 1020.0 1016.8 0.0
28/07:00pm 26.4 23.2 3.0 22 11.8 SSE 9 13 5 7 1019.6 1016.4 0.0
28/06:30pm 26.6 22.0 3.8 23 11.6 S 17 22 9 12 1019.3 1016.1 0.0
28/06:00pm 27.0 23.0 2.8 21 12.2 SSE 13 19 7 10 1018.8 1015.7 0.0
28/05:30pm 27.4 22.5 1.8 19 12.7 SSE 17 24 9 13 1018.4 1015.3 0.0
28/05:00pm 28.1 22.6 0.8 17 13.4 SSE 19 28 10 15 1018.1 1014.9 0.0
28/04:30pm 28.7 23.0 0.4 16 13.8 SSE 20 28 11 15 1017.8 1014.6 0.0
28/04:00pm 29.9 25.7 1.4 16 14.3 SE 13 17 7 9 1017.7 1014.5 0.0
28/03:30pm 29.8 25.1 -1.5 13 14.9 ESE 13 20 7 11 1018.1 1014.9 0.0
28/03:00pm 30.1 26.6 -1.3 13 15.0 SE 7 17 4 9 1018.2 1015.1 0.0
28/02:30pm 29.7 25.0 -1.6 13 14.8 NE 13 20 7 11 1018.5 1015.4 0.0
28/02:00pm 29.8 24.6 -2.6 12 15.1 ENE 15 26 8 14 1019.0 1015.8 0.0
28/01:30pm 29.2 24.3 -3.1 12 14.8 NE 13 26 7 14 1019.5 1016.3 0.0
28/01:00pm 28.6 22.8 -4.7 11 14.8 E 17 26 9 14 1020.0 1016.8 0.0
28/12:30pm 28.2 22.5 -3.9 12 14.4 ENE 17 30 9 16 1020.3 1017.2 0.0
28/12:00pm 27.7 21.2 -2.2 14 13.8 E 22 30 12 16 1020.9 1017.8 0.0
28/11:30am 27.5 21.1 -1.4 15 13.5 ENE 22 33 12 18 1021.3 1018.1 0.0
28/11:00am 25.6 18.8 -2.1 16 12.6 ENE 24 33 13 18 1021.8 1018.6 0.0
28/10:30am 24.9 18.1 -1.8 17 12.1 E 24 35 13 19 1022.2 1019.1 0.0
28/10:00am 23.8 17.0 -1.9 18 11.6 ENE 24 32 13 17 1022.5 1019.4 0.0
28/09:30am 23.2 16.8 -1.7 19 11.2 ENE 22 37 12 20 1022.6 1019.5 0.0
28/09:00am 22.0 14.9 -1.3 21 10.4 ENE 26 32 14 17 1022.7 1019.6 0.0
28/08:30am 20.3 13.9 -1.5 23 9.6 E 22 33 12 18 1022.3 1019.2 0.0
28/08:00am 20.0 14.0 -1.2 24 9.4 E 20 26 11 14 1022.1 1019.0 0.0
28/07:30am 18.8 14.2 -1.1 26 8.7 ESE 13 17 7 9 1021.8 1018.6 0.0
28/07:00am 17.5 13.6 -1.7 27 8.2 ESE 9 13 5 7 1021.6 1018.4 0.0
28/06:30am 17.8 13.1 -1.9 26 8.4 ESE 13 15 7 8 1021.3 1018.1 0.0
28/06:00am 18.2 13.8 -2.1 25 8.7 ESE 11 17 6 9 1020.8 1017.7 0.0
28/05:30am 18.3 13.9 -2.6 24 8.8 ESE 11 15 6 8 1020.6 1017.5 0.0
28/05:00am 19.0 14.2 -2.6 23 9.2 ESE 13 17 7 9 1020.4 1017.3 0.0
28/04:30am 18.8 14.4 -2.7 23 9.1 SE 11 15 6 8 1020.4 1017.3 0.0
28/04:00am 19.1 15.0 -3.1 22 9.4 SE 9 13 5 7 1020.5 1017.4 0.0
28/03:30am 20.0 15.1 -3.6 20 9.9 ESE 13 17 7 9 1020.5 1017.4 0.0
28/03:00am 20.6 16.4 -3.8 19 10.3 ESE 9 13 5 7 1020.7 1017.6 0.0
28/02:30am 21.0 16.5 -3.5 19 10.4 ESE 11 15 6 8 1020.9 1017.8 0.0
28/02:00am 21.5 16.6 -3.8 18 10.8 E 13 15 7 8 1021.2 1018.0 0.0
28/01:30am 22.0 16.7 -3.4 18 10.9 E 15 20 8 11 1021.3 1018.1 0.0
28/01:00am 22.4 16.8 -3.1 18 11.1 E 17 20 9 11 1021.6 1018.4 0.0
28/12:30am 22.7 17.9 -2.8 18 11.2 E 13 19 7 10 1022.0 1018.9 0.0
28/12:00am 23.0 17.4 -2.6 18 11.3 E 17 20 9 11 1021.9 1018.8 0.0
 
Date/Time
CST
Temp
°C
App
Temp
°C
Dew
Point
Rel
Hum
%
Delta-T
°C
Wind Press
QNH
hPa
Press
MSL
hPa
Rain
since 9 am
mm
Dir
 
Spd
km/h
Gust
km/h
Spd
kts
Gust
kts
27/11:30pm 23.3 17.8 -2.3 18 11.4 E 17 22 9 12 1022.1 1019.0 0.0
27/11:00pm 23.2 18.6 -1.0 20 11.0 E 13 19 7 10 1022.1 1019.0 0.0
27/10:30pm 23.8 19.3 -0.5 20 11.2 E 13 17 7 9 1021.9 1018.8 0.0
27/10:00pm 24.6 19.8 0.2 20 11.5 E 15 19 8 10 1021.9 1018.8 0.0
27/09:30pm 25.3 20.8 0.0 19 11.9 E 13 17 7 9 1022.1 1019.0 0.0
27/09:00pm 26.0 21.3 0.6 19 12.2 E 15 19 8 10 1021.6 1018.4 0.0
27/08:30pm 26.2 21.9 0.8 19 12.2 E 13 17 7 9 1021.4 1018.2 0.0
27/08:00pm 26.7 21.5 0.4 18 12.7 E 17 20 9 11 1021.1 1017.9 0.0
27/07:30pm 27.3 21.8 0.9 18 12.8 E 19 22 10 12 1020.6 1017.5 0.0
27/07:00pm 27.9 22.2 0.6 17 13.3 E 20 28 11 15 1020.2 1017.1 0.0

Other Formats:

Comma delimited format used in spreadsheet applications
http://www.bom.gov.au/fwo/IDD60801/IDD60801.94462.axf

JavaScript Object Notation format (JSON) in row-major order
http://www.bom.gov.au/fwo/IDD60801/IDD60801.94462.json